sensor_id;sensor_type;location;lat;lon;timestamp;pressure;altitude;pressure_sealevel;temperature
66372;BMP180;53168;51.146;17.120;2024-02-26T00:19:25;99065.60;;;3.48
66372;BMP180;53168;51.146;17.120;2024-02-26T00:22:00;99072.40;;;3.50
66372;BMP180;53168;51.146;17.120;2024-02-26T00:24:35;99069.00;;;3.50
66372;BMP180;53168;51.146;17.120;2024-02-26T00:27:12;99063.20;;;3.48
66372;BMP180;53168;51.146;17.120;2024-02-26T00:29:47;99068.40;;;3.42
66372;BMP180;53168;51.146;17.120;2024-02-26T00:32:22;99062.00;;;3.40
66372;BMP180;53168;51.146;17.120;2024-02-26T00:34:58;99067.60;;;3.30
66372;BMP180;53168;51.146;17.120;2024-02-26T00:37:33;99058.80;;;3.30
66372;BMP180;53168;51.146;17.120;2024-02-26T00:40:10;99066.00;;;3.30
66372;BMP180;53168;51.146;17.120;2024-02-26T00:42:45;99062.80;;;3.30
66372;BMP180;53168;51.146;17.120;2024-02-26T00:45:21;99066.80;;;3.30
66372;BMP180;53168;51.146;17.120;2024-02-26T00:59:33;99055.60;;;3.30
66372;BMP180;53168;51.146;17.120;2024-02-26T01:02:08;99059.20;;;3.30
66372;BMP180;53168;51.146;17.120;2024-02-26T01:04:43;99060.60;;;3.30
66372;BMP180;53168;51.146;17.120;2024-02-26T01:07:18;99056.60;;;3.30
66372;BMP180;53168;51.146;17.120;2024-02-26T01:09:54;99054.20;;;3.20
66372;BMP180;53168;51.146;17.120;2024-02-26T01:12:29;99046.60;;;3.20
66372;BMP180;53168;51.146;17.120;2024-02-26T01:15:07;99047.20;;;3.10
66372;BMP180;53168;51.146;17.120;2024-02-26T01:17:43;99043.00;;;3.10
66372;BMP180;53168;51.146;17.120;2024-02-26T01:20:18;99043.20;;;3.02
66372;BMP180;53168;51.146;17.120;2024-02-26T01:22:53;99039.60;;;3.00
66372;BMP180;53168;51.146;17.120;2024-02-26T01:25:28;99040.00;;;3.00
66372;BMP180;53168;51.146;17.120;2024-02-26T01:28:06;99039.40;;;2.90
66372;BMP180;53168;51.146;17.120;2024-02-26T01:30:40;99034.80;;;2.90
66372;BMP180;53168;51.146;17.120;2024-02-26T01:33:15;99037.00;;;2.90
66372;BMP180;53168;51.146;17.120;2024-02-26T01:35:51;99037.40;;;2.90
66372;BMP180;53168;51.146;17.120;2024-02-26T01:38:28;99035.60;;;2.90
66372;BMP180;53168;51.146;17.120;2024-02-26T01:41:03;99034.20;;;2.80
66372;BMP180;53168;51.146;17.120;2024-02-26T01:43:38;99029.40;;;2.80
66372;BMP180;53168;51.146;17.120;2024-02-26T01:46:16;99031.00;;;2.80
66372;BMP180;53168;51.146;17.120;2024-02-26T01:48:55;99030.60;;;2.80
66372;BMP180;53168;51.146;17.120;2024-02-26T01:51:32;99031.60;;;2.78
66372;BMP180;53168;51.146;17.120;2024-02-26T01:54:11;99025.60;;;2.70
66372;BMP180;53168;51.146;17.120;2024-02-26T01:56:46;99028.00;;;2.70
66372;BMP180;53168;51.146;17.120;2024-02-26T01:59:23;99029.80;;;2.70
66372;BMP180;53168;51.146;17.120;2024-02-26T02:02:03;99027.00;;;2.70
66372;BMP180;53168;51.146;17.120;2024-02-26T02:04:40;99028.20;;;2.60
66372;BMP180;53168;51.146;17.120;2024-02-26T02:07:16;99022.60;;;2.60
66372;BMP180;53168;51.146;17.120;2024-02-26T02:09:51;99027.60;;;2.50
66372;BMP180;53168;51.146;17.120;2024-02-26T02:12:28;99027.60;;;2.44
66372;BMP180;53168;51.146;17.120;2024-02-26T02:15:08;99026.60;;;2.40
66372;BMP180;53168;51.146;17.120;2024-02-26T02:17:43;99023.20;;;2.40
66372;BMP180;53168;51.146;17.120;2024-02-26T02:20:41;99015.00;;;2.40
66372;BMP180;53168;51.146;17.120;2024-02-26T02:23:16;99015.80;;;2.40
66372;BMP180;53168;51.146;17.120;2024-02-26T02:25:52;99013.60;;;2.40
66372;BMP180;53168;51.146;17.120;2024-02-26T02:28:31;99018.00;;;2.40
66372;BMP180;53168;51.146;17.120;2024-02-26T02:31:07;99014.20;;;2.40
66372;BMP180;53168;51.146;17.120;2024-02-26T02:33:42;99013.00;;;2.40
66372;BMP180;53168;51.146;17.120;2024-02-26T02:36:18;99016.40;;;2.50
66372;BMP180;53168;51.146;17.120;2024-02-26T02:38:57;99018.80;;;2.50
66372;BMP180;53168;51.146;17.120;2024-02-26T02:41:32;99016.00;;;2.50
66372;BMP180;53168;51.146;17.120;2024-02-26T02:44:07;99011.40;;;2.40
66372;BMP180;53168;51.146;17.120;2024-02-26T02:46:42;99014.40;;;2.34
66372;BMP180;53168;51.146;17.120;2024-02-26T02:49:17;99014.80;;;2.30
66372;BMP180;53168;51.146;17.120;2024-02-26T02:51:52;99018.60;;;2.20
66372;BMP180;53168;51.146;17.120;2024-02-26T02:54:29;99020.80;;;2.18
66372;BMP180;53168;51.146;17.120;2024-02-26T02:57:04;99020.80;;;2.12
66372;BMP180;53168;51.146;17.120;2024-02-26T02:59:40;99020.00;;;2.10
66372;BMP180;53168;51.146;17.120;2024-02-26T03:02:16;99016.20;;;2.10
66372;BMP180;53168;51.146;17.120;2024-02-26T03:04:50;99015.20;;;2.10
66372;BMP180;53168;51.146;17.120;2024-02-26T03:07:27;99021.20;;;2.20
66372;BMP180;53168;51.146;17.120;2024-02-26T03:10:03;99017.60;;;2.20
66372;BMP180;53168;51.146;17.120;2024-02-26T03:12:38;99020.60;;;2.20
66372;BMP180;53168;51.146;17.120;2024-02-26T03:15:15;99016.80;;;2.20
66372;BMP180;53168;51.146;17.120;2024-02-26T03:17:51;99013.80;;;2.30
66372;BMP180;53168;51.146;17.120;2024-02-26T03:20:26;99012.20;;;2.30
66372;BMP180;53168;51.146;17.120;2024-02-26T03:23:04;99014.40;;;2.38
66372;BMP180;53168;51.146;17.120;2024-02-26T03:25:41;99012.40;;;2.40
66372;BMP180;53168;51.146;17.120;2024-02-26T03:28:16;99007.80;;;2.40
66372;BMP180;53168;51.146;17.120;2024-02-26T03:30:50;99007.00;;;2.40
66372;BMP180;53168;51.146;17.120;2024-02-26T03:33:26;99010.20;;;2.48
66372;BMP180;53168;51.146;17.120;2024-02-26T03:36:04;99008.20;;;2.50
66372;BMP180;53168;51.146;17.120;2024-02-26T03:38:42;99012.60;;;2.50
66372;BMP180;53168;51.146;17.120;2024-02-26T03:41:17;99007.00;;;2.50
66372;BMP180;53168;51.146;17.120;2024-02-26T03:43:52;99005.20;;;2.60
66372;BMP180;53168;51.146;17.120;2024-02-26T03:46:27;99004.40;;;2.62
66372;BMP180;53168;51.146;17.120;2024-02-26T03:49:03;99003.00;;;2.70
66372;BMP180;53168;51.146;17.120;2024-02-26T03:51:38;99003.80;;;2.70
66372;BMP180;53168;51.146;17.120;2024-02-26T03:54:13;99000.40;;;2.80
66372;BMP180;53168;51.146;17.120;2024-02-26T03:56:48;99002.00;;;2.80
66372;BMP180;53168;51.146;17.120;2024-02-26T03:59:23;99004.40;;;2.80
66372;BMP180;53168;51.146;17.120;2024-02-26T04:02:05;99004.40;;;2.78
66372;BMP180;53168;51.146;17.120;2024-02-26T04:04:40;99006.20;;;2.70
66372;BMP180;53168;51.146;17.120;2024-02-26T04:07:15;99003.40;;;2.70
66372;BMP180;53168;51.146;17.120;2024-02-26T04:09:51;99001.40;;;2.70
66372;BMP180;53168;51.146;17.120;2024-02-26T04:12:26;98997.80;;;2.64
66372;BMP180;53168;51.146;17.120;2024-02-26T04:15:01;99002.60;;;2.60
66372;BMP180;53168;51.146;17.120;2024-02-26T04:17:36;99010.40;;;2.60
66372;BMP180;53168;51.146;17.120;2024-02-26T04:23:02;99005.00;;;2.50
66372;BMP180;53168;51.146;17.120;2024-02-26T04:25:33;99002.00;;;2.50
66372;BMP180;53168;51.146;17.120;2024-02-26T04:28:05;99002.40;;;2.50
66372;BMP180;53168;51.146;17.120;2024-02-26T04:30:36;99001.60;;;2.50
66372;BMP180;53168;51.146;17.120;2024-02-26T04:33:08;99003.20;;;2.50
66372;BMP180;53168;51.146;17.120;2024-02-26T04:35:39;99009.60;;;2.50
66372;BMP180;53168;51.146;17.120;2024-02-26T04:38:10;99012.20;;;2.50
66372;BMP180;53168;51.146;17.120;2024-02-26T04:40:42;99015.20;;;2.50
66372;BMP180;53168;51.146;17.120;2024-02-26T04:43:13;99012.80;;;2.50
66372;BMP180;53168;51.146;17.120;2024-02-26T04:45:44;99016.20;;;2.40
66372;BMP180;53168;51.146;17.120;2024-02-26T04:48:15;99013.80;;;2.40
66372;BMP180;53168;51.146;17.120;2024-02-26T04:50:46;99016.00;;;2.40
66372;BMP180;53168;51.146;17.120;2024-02-26T04:53:17;99015.80;;;2.40
66372;BMP180;53168;51.146;17.120;2024-02-26T04:55:48;99015.60;;;2.40
66372;BMP180;53168;51.146;17.120;2024-02-26T04:58:19;99016.40;;;2.40
66372;BMP180;53168;51.146;17.120;2024-02-26T05:00:50;99020.00;;;2.40
66372;BMP180;53168;51.146;17.120;2024-02-26T05:03:21;99025.60;;;2.40
66372;BMP180;53168;51.146;17.120;2024-02-26T05:05:52;99023.00;;;2.40
66372;BMP180;53168;51.146;17.120;2024-02-26T05:08:24;99021.40;;;2.40
66372;BMP180;53168;51.146;17.120;2024-02-26T05:10:54;99018.40;;;2.50
66372;BMP180;53168;51.146;17.120;2024-02-26T05:13:25;99019.40;;;2.50
66372;BMP180;53168;51.146;17.120;2024-02-26T05:15:56;99015.20;;;2.50
66372;BMP180;53168;51.146;17.120;2024-02-26T05:18:28;99017.80;;;2.50
66372;BMP180;53168;51.146;17.120;2024-02-26T05:21:00;99018.60;;;2.50
66372;BMP180;53168;51.146;17.120;2024-02-26T05:23:33;99018.60;;;2.50
66372;BMP180;53168;51.146;17.120;2024-02-26T05:26:05;99019.00;;;2.50
66372;BMP180;53168;51.146;17.120;2024-02-26T05:28:38;99016.00;;;2.60
66372;BMP180;53168;51.146;17.120;2024-02-26T05:31:15;99025.60;;;2.60
66372;BMP180;53168;51.146;17.120;2024-02-26T05:33:47;99021.80;;;2.68
66372;BMP180;53168;51.146;17.120;2024-02-26T05:36:22;99018.00;;;2.70
66372;BMP180;53168;51.146;17.120;2024-02-26T05:38:54;99023.80;;;2.80
66372;BMP180;53168;51.146;17.120;2024-02-26T05:41:26;99023.60;;;2.80
66372;BMP180;53168;51.146;17.120;2024-02-26T05:43:57;99023.20;;;2.80
66372;BMP180;53168;51.146;17.120;2024-02-26T05:46:29;99020.40;;;2.88
66372;BMP180;53168;51.146;17.120;2024-02-26T05:49:00;99024.60;;;2.90
66372;BMP180;53168;51.146;17.120;2024-02-26T05:51:39;99032.20;;;2.80
66372;BMP180;53168;51.146;17.120;2024-02-26T05:54:10;99030.80;;;2.80
66372;BMP180;53168;51.146;17.120;2024-02-26T05:56:46;99029.60;;;2.80
66372;BMP180;53168;51.146;17.120;2024-02-26T05:59:37;99032.60;;;2.80
66372;BMP180;53168;51.146;17.120;2024-02-26T06:02:08;99030.40;;;2.80
66372;BMP180;53168;51.146;17.120;2024-02-26T06:04:41;99032.60;;;2.80
66372;BMP180;53168;51.146;17.120;2024-02-26T06:07:12;99034.20;;;2.80
66372;BMP180;53168;51.146;17.120;2024-02-26T06:09:43;99036.60;;;2.82
66372;BMP180;53168;51.146;17.120;2024-02-26T06:12:37;99039.60;;;2.90
66372;BMP180;53168;51.146;17.120;2024-02-26T06:15:13;99038.60;;;2.90
66372;BMP180;53168;51.146;17.120;2024-02-26T06:17:45;99044.20;;;3.00
66372;BMP180;53168;51.146;17.120;2024-02-26T06:23:19;99047.20;;;3.14
66372;BMP180;53168;51.146;17.120;2024-02-26T06:26:09;99047.00;;;3.20
66372;BMP180;53168;51.146;17.120;2024-02-26T06:28:45;99040.40;;;3.30
66372;BMP180;53168;51.146;17.120;2024-02-26T06:31:16;99037.80;;;3.50
66372;BMP180;53168;51.146;17.120;2024-02-26T06:33:48;99040.20;;;3.66
66372;BMP180;53168;51.146;17.120;2024-02-26T06:36:21;99045.20;;;3.80
66372;BMP180;53168;51.146;17.120;2024-02-26T06:38:53;99044.60;;;3.90
66372;BMP180;53168;51.146;17.120;2024-02-26T06:41:25;99048.20;;;4.00
66372;BMP180;53168;51.146;17.120;2024-02-26T06:43:58;99047.80;;;4.10
66372;BMP180;53168;51.146;17.120;2024-02-26T06:46:29;99040.60;;;4.20
66372;BMP180;53168;51.146;17.120;2024-02-26T06:49:00;99049.40;;;4.30
66372;BMP180;53168;51.146;17.120;2024-02-26T06:51:32;99050.80;;;4.34
66372;BMP180;53168;51.146;17.120;2024-02-26T06:54:03;99054.40;;;4.40
66372;BMP180;53168;51.146;17.120;2024-02-26T06:56:35;99050.00;;;4.50
66372;BMP180;53168;51.146;17.120;2024-02-26T06:59:08;99048.60;;;4.60
66372;BMP180;53168;51.146;17.120;2024-02-26T07:01:42;99050.20;;;4.62
66372;BMP180;53168;51.146;17.120;2024-02-26T07:04:13;99054.00;;;4.70
66372;BMP180;53168;51.146;17.120;2024-02-26T07:06:44;99056.80;;;4.80
66372;BMP180;53168;51.146;17.120;2024-02-26T07:09:17;99054.60;;;4.90
66372;BMP180;53168;51.146;17.120;2024-02-26T07:11:48;99060.00;;;5.00
66372;BMP180;53168;51.146;17.120;2024-02-26T07:14:19;99062.00;;;5.10
66372;BMP180;53168;51.146;17.120;2024-02-26T07:16:50;99057.40;;;5.20
66372;BMP180;53168;51.146;17.120;2024-02-26T07:19:23;99057.80;;;5.40
66372;BMP180;53168;51.146;17.120;2024-02-26T07:21:57;99061.40;;;5.50
66372;BMP180;53168;51.146;17.120;2024-02-26T07:27:29;99058.80;;;5.70
66372;BMP180;53168;51.146;17.120;2024-02-26T07:30:04;99061.40;;;5.82
66372;BMP180;53168;51.146;17.120;2024-02-26T07:32:39;99062.20;;;6.00
66372;BMP180;53168;51.146;17.120;2024-02-26T07:35:16;99053.20;;;6.10
66372;BMP180;53168;51.146;17.120;2024-02-26T07:37:50;99062.40;;;6.20
66372;BMP180;53168;51.146;17.120;2024-02-26T07:40:22;99059.40;;;6.30
66372;BMP180;53168;51.146;17.120;2024-02-26T07:42:52;99060.40;;;6.50
66372;BMP180;53168;51.146;17.120;2024-02-26T07:45:24;99063.00;;;6.60
66372;BMP180;53168;51.146;17.120;2024-02-26T07:47:55;99067.80;;;6.78
66372;BMP180;53168;51.146;17.120;2024-02-26T07:50:26;99069.80;;;6.90
66372;BMP180;53168;51.146;17.120;2024-02-26T07:52:56;99074.20;;;6.98
66372;BMP180;53168;51.146;17.120;2024-02-26T07:55:28;99071.60;;;7.10
66372;BMP180;53168;51.146;17.120;2024-02-26T07:57:59;99072.20;;;7.20
66372;BMP180;53168;51.146;17.120;2024-02-26T08:00:30;99070.00;;;7.30
66372;BMP180;53168;51.146;17.120;2024-02-26T08:03:01;99071.80;;;7.40
66372;BMP180;53168;51.146;17.120;2024-02-26T08:05:33;99075.60;;;7.50
66372;BMP180;53168;51.146;17.120;2024-02-26T08:08:05;99071.00;;;7.64
66372;BMP180;53168;51.146;17.120;2024-02-26T08:10:36;99067.40;;;7.80
66372;BMP180;53168;51.146;17.120;2024-02-26T08:13:07;99073.40;;;7.96
66372;BMP180;53168;51.146;17.120;2024-02-26T08:15:41;99073.20;;;8.10
66372;BMP180;53168;51.146;17.120;2024-02-26T08:18:14;99073.40;;;8.22
66372;BMP180;53168;51.146;17.120;2024-02-26T08:20:47;99070.80;;;8.40
66372;BMP180;53168;51.146;17.120;2024-02-26T08:23:19;99072.80;;;8.50
66372;BMP180;53168;51.146;17.120;2024-02-26T08:25:51;99072.20;;;8.68
66372;BMP180;53168;51.146;17.120;2024-02-26T08:28:22;99068.20;;;8.80
66372;BMP180;53168;51.146;17.120;2024-02-26T08:30:56;99069.80;;;8.90
66372;BMP180;53168;51.146;17.120;2024-02-26T08:33:28;99075.20;;;9.10
66372;BMP180;53168;51.146;17.120;2024-02-26T08:36:02;99073.60;;;9.22
66372;BMP180;53168;51.146;17.120;2024-02-26T08:38:35;99074.60;;;9.40
66372;BMP180;53168;51.146;17.120;2024-02-26T08:41:06;99077.40;;;9.60
66372;BMP180;53168;51.146;17.120;2024-02-26T08:43:38;99076.00;;;9.80
66372;BMP180;53168;51.146;17.120;2024-02-26T08:46:13;99073.60;;;9.90
66372;BMP180;53168;51.146;17.120;2024-02-26T08:48:45;99070.60;;;10.10
66372;BMP180;53168;51.146;17.120;2024-02-26T08:51:16;99068.60;;;10.30
66372;BMP180;53168;51.146;17.120;2024-02-26T08:53:48;99066.80;;;10.48
66372;BMP180;53168;51.146;17.120;2024-02-26T08:56:20;99066.60;;;10.60
66372;BMP180;53168;51.146;17.120;2024-02-26T08:58:52;99065.20;;;10.80
66372;BMP180;53168;51.146;17.120;2024-02-26T09:01:26;99060.80;;;11.00
66372;BMP180;53168;51.146;17.120;2024-02-26T09:03:58;99064.20;;;11.10
66372;BMP180;53168;51.146;17.120;2024-02-26T09:06:30;99065.00;;;11.20
66372;BMP180;53168;51.146;17.120;2024-02-26T09:09:01;99062.00;;;11.38
66372;BMP180;53168;51.146;17.120;2024-02-26T09:11:35;99061.20;;;11.50
66372;BMP180;53168;51.146;17.120;2024-02-26T09:14:07;99063.00;;;11.70
66372;BMP180;53168;51.146;17.120;2024-02-26T09:16:38;99060.20;;;11.80
66372;BMP180;53168;51.146;17.120;2024-02-26T09:19:09;99067.60;;;11.90
66372;BMP180;53168;51.146;17.120;2024-02-26T09:21:45;99061.20;;;12.00
66372;BMP180;53168;51.146;17.120;2024-02-26T09:24:16;99056.80;;;12.10
66372;BMP180;53168;51.146;17.120;2024-02-26T09:26:49;99057.20;;;12.10
66372;BMP180;53168;51.146;17.120;2024-02-26T09:29:31;99052.00;;;12.20
66372;BMP180;53168;51.146;17.120;2024-02-26T09:32:09;99050.60;;;12.30
66372;BMP180;53168;51.146;17.120;2024-02-26T09:34:42;99056.20;;;12.50
66372;BMP180;53168;51.146;17.120;2024-02-26T09:37:15;99054.20;;;12.68
66372;BMP180;53168;51.146;17.120;2024-02-26T09:39:52;99057.40;;;12.76
66372;BMP180;53168;51.146;17.120;2024-02-26T09:42:27;99058.60;;;12.80
66372;BMP180;53168;51.146;17.120;2024-02-26T09:45:06;99062.80;;;12.88
66372;BMP180;53168;51.146;17.120;2024-02-26T09:47:40;99053.80;;;13.00
66372;BMP180;53168;51.146;17.120;2024-02-26T09:50:16;99058.40;;;13.00
66372;BMP180;53168;51.146;17.120;2024-02-26T09:52:57;99055.80;;;13.10
66372;BMP180;53168;51.146;17.120;2024-02-26T09:55:29;99056.60;;;13.20
66372;BMP180;53168;51.146;17.120;2024-02-26T09:58:05;99056.80;;;13.20
66372;BMP180;53168;51.146;17.120;2024-02-26T10:00:42;99062.60;;;13.38
66372;BMP180;53168;51.146;17.120;2024-02-26T10:03:17;99060.80;;;13.50
66372;BMP180;53168;51.146;17.120;2024-02-26T10:05:52;99065.60;;;13.62
66372;BMP180;53168;51.146;17.120;2024-02-26T10:08:27;99068.20;;;13.90
66372;BMP180;53168;51.146;17.120;2024-02-26T10:11:00;99064.00;;;14.00
66372;BMP180;53168;51.146;17.120;2024-02-26T10:13:33;99068.60;;;14.04
66372;BMP180;53168;51.146;17.120;2024-02-26T10:16:10;99061.80;;;14.20
66372;BMP180;53168;51.146;17.120;2024-02-26T10:18:49;99065.80;;;14.28
66372;BMP180;53168;51.146;17.120;2024-02-26T10:21:29;99070.80;;;14.40
66372;BMP180;53168;51.146;17.120;2024-02-26T10:24:01;99068.60;;;14.40
66372;BMP180;53168;51.146;17.120;2024-02-26T10:26:34;99065.60;;;14.36
66372;BMP180;53168;51.146;17.120;2024-02-26T10:29:05;99063.60;;;14.30
66372;BMP180;53168;51.146;17.120;2024-02-26T10:31:42;99069.20;;;14.30
66372;BMP180;53168;51.146;17.120;2024-02-26T10:34:18;99069.20;;;14.40
66372;BMP180;53168;51.146;17.120;2024-02-26T10:36:51;99067.20;;;14.40
66372;BMP180;53168;51.146;17.120;2024-02-26T10:39:24;99067.60;;;14.30
66372;BMP180;53168;51.146;17.120;2024-02-26T10:41:59;99071.60;;;14.20
66372;BMP180;53168;51.146;17.120;2024-02-26T10:45:08;99077.20;;;14.30
66372;BMP180;53168;51.146;17.120;2024-02-26T10:47:43;99071.60;;;14.42
66372;BMP180;53168;51.146;17.120;2024-02-26T10:50:17;99075.80;;;14.60
66372;BMP180;53168;51.146;17.120;2024-02-26T10:52:49;99075.00;;;14.90
66372;BMP180;53168;51.146;17.120;2024-02-26T10:55:24;99074.40;;;15.30
66372;BMP180;53168;51.146;17.120;2024-02-26T10:57:57;99074.20;;;15.50
66372;BMP180;53168;51.146;17.120;2024-02-26T11:00:28;99063.80;;;15.40
66372;BMP180;53168;51.146;17.120;2024-02-26T11:03:02;99072.00;;;15.30
66372;BMP180;53168;51.146;17.120;2024-02-26T11:05:34;99066.80;;;15.20
66372;BMP180;53168;51.146;17.120;2024-02-26T11:08:07;99064.80;;;15.20
66372;BMP180;53168;51.146;17.120;2024-02-26T11:10:39;99058.00;;;15.20
66372;BMP180;53168;51.146;17.120;2024-02-26T11:13:15;99051.60;;;15.28
66372;BMP180;53168;51.146;17.120;2024-02-26T11:15:49;99046.60;;;15.20
66372;BMP180;53168;51.146;17.120;2024-02-26T11:18:22;99052.20;;;15.30
66372;BMP180;53168;51.146;17.120;2024-02-26T11:20:56;99041.00;;;15.40
66372;BMP180;53168;51.146;17.120;2024-02-26T11:23:27;99044.80;;;15.34
66372;BMP180;53168;51.146;17.120;2024-02-26T11:26:20;99038.40;;;15.30
66372;BMP180;53168;51.146;17.120;2024-02-26T11:28:55;99038.00;;;15.30
66372;BMP180;53168;51.146;17.120;2024-02-26T11:31:28;99039.00;;;15.40
66372;BMP180;53168;51.146;17.120;2024-02-26T11:34:04;99035.60;;;15.50
66372;BMP180;53168;51.146;17.120;2024-02-26T11:36:37;99033.40;;;15.60
66372;BMP180;53168;51.146;17.120;2024-02-26T11:39:13;99031.60;;;15.70
66372;BMP180;53168;51.146;17.120;2024-02-26T11:41:47;99021.00;;;15.80
66372;BMP180;53168;51.146;17.120;2024-02-26T11:44:30;99025.00;;;15.80
66372;BMP180;53168;51.146;17.120;2024-02-26T11:47:12;99023.80;;;15.90
66372;BMP180;53168;51.146;17.120;2024-02-26T11:49:43;99024.20;;;16.08
66372;BMP180;53168;51.146;17.120;2024-02-26T11:52:16;99014.00;;;16.60
66372;BMP180;53168;51.146;17.120;2024-02-26T11:54:51;99015.20;;;16.78
66372;BMP180;53168;51.146;17.120;2024-02-26T11:57:30;99028.60;;;16.86
66372;BMP180;53168;51.146;17.120;2024-02-26T12:00:15;99031.20;;;16.40
66372;BMP180;53168;51.146;17.120;2024-02-26T12:02:51;99028.40;;;16.10
66372;BMP180;53168;51.146;17.120;2024-02-26T12:05:34;99002.20;;;16.62
66372;BMP180;53168;51.146;17.120;2024-02-26T12:08:09;98997.40;;;17.46
66372;BMP180;53168;51.146;17.120;2024-02-26T12:10:42;99001.00;;;17.62
66372;BMP180;53168;51.146;17.120;2024-02-26T12:13:16;99013.40;;;17.70
66372;BMP180;53168;51.146;17.120;2024-02-26T12:15:58;99008.00;;;17.94
66372;BMP180;53168;51.146;17.120;2024-02-26T12:18:31;99006.80;;;18.38
66372;BMP180;53168;51.146;17.120;2024-02-26T12:21:04;99007.60;;;18.68
66372;BMP180;53168;51.146;17.120;2024-02-26T12:23:36;99012.20;;;18.90
66372;BMP180;53168;51.146;17.120;2024-02-26T12:26:07;99012.60;;;19.10
66372;BMP180;53168;51.146;17.120;2024-02-26T12:28:43;99010.40;;;19.40
66372;BMP180;53168;51.146;17.120;2024-02-26T12:31:57;99016.80;;;19.64
66372;BMP180;53168;51.146;17.120;2024-02-26T12:34:32;99016.60;;;19.70
66372;BMP180;53168;51.146;17.120;2024-02-26T12:37:08;99023.80;;;19.66
66372;BMP180;53168;51.146;17.120;2024-02-26T12:39:43;99018.20;;;19.10
66372;BMP180;53168;51.146;17.120;2024-02-26T12:42:21;99023.40;;;18.72
66372;BMP180;53168;51.146;17.120;2024-02-26T12:44:59;99029.40;;;18.06
66372;BMP180;53168;51.146;17.120;2024-02-26T12:47:37;99025.80;;;17.40
66372;BMP180;53168;51.146;17.120;2024-02-26T12:50:13;99021.80;;;17.10
66372;BMP180;53168;51.146;17.120;2024-02-26T12:52:49;99032.80;;;17.00
66372;BMP180;53168;51.146;17.120;2024-02-26T12:55:27;99040.00;;;16.70
66372;BMP180;53168;51.146;17.120;2024-02-26T12:58:04;99034.80;;;16.54
66372;BMP180;53168;51.146;17.120;2024-02-26T13:00:40;99041.80;;;16.40
66372;BMP180;53168;51.146;17.120;2024-02-26T13:03:17;99038.80;;;16.30
66372;BMP180;53168;51.146;17.120;2024-02-26T13:06:04;99042.20;;;16.40
66372;BMP180;53168;51.146;17.120;2024-02-26T13:08:55;99032.60;;;16.68
66372;BMP180;53168;51.146;17.120;2024-02-26T13:11:36;99035.80;;;17.18
66372;BMP180;53168;51.146;17.120;2024-02-26T13:14:25;99042.20;;;17.10
66372;BMP180;53168;51.146;17.120;2024-02-26T13:17:08;99046.40;;;16.62
66372;BMP180;53168;51.146;17.120;2024-02-26T13:20:00;99042.20;;;16.50
66372;BMP180;53168;51.146;17.120;2024-02-26T13:22:46;99047.00;;;16.50
66372;BMP180;53168;51.146;17.120;2024-02-26T13:25:25;99048.80;;;16.60
66372;BMP180;53168;51.146;17.120;2024-02-26T13:28:12;99048.40;;;16.82
66372;BMP180;53168;51.146;17.120;2024-02-26T13:31:01;99048.40;;;16.80
66372;BMP180;53168;51.146;17.120;2024-02-26T13:39:27;99045.60;;;16.86
66372;BMP180;53168;51.146;17.120;2024-02-26T13:42:04;99054.20;;;17.04
66372;BMP180;53168;51.146;17.120;2024-02-26T13:44:39;99057.00;;;16.86
66372;BMP180;53168;51.146;17.120;2024-02-26T13:47:16;99056.80;;;17.00
66372;BMP180;53168;51.146;17.120;2024-02-26T13:49:51;99047.00;;;17.10
66372;BMP180;53168;51.146;17.120;2024-02-26T13:52:31;99047.80;;;17.32
66372;BMP180;53168;51.146;17.120;2024-02-26T13:55:09;99057.40;;;17.50
66372;BMP180;53168;51.146;17.120;2024-02-26T13:57:48;99060.40;;;17.20
66372;BMP180;53168;51.146;17.120;2024-02-26T14:00:26;99063.40;;;16.80
66372;BMP180;53168;51.146;17.120;2024-02-26T14:03:04;99067.40;;;16.40
66372;BMP180;53168;51.146;17.120;2024-02-26T14:05:40;99070.80;;;15.96
66372;BMP180;53168;51.146;17.120;2024-02-26T14:08:20;99070.60;;;15.60
66372;BMP180;53168;51.146;17.120;2024-02-26T14:10:56;99068.60;;;15.36
66372;BMP180;53168;51.146;17.120;2024-02-26T14:13:32;99067.40;;;15.10
66372;BMP180;53168;51.146;17.120;2024-02-26T14:16:12;99064.40;;;14.82
66372;BMP180;53168;51.146;17.120;2024-02-26T14:18:48;99065.60;;;14.60
66372;BMP180;53168;51.146;17.120;2024-02-26T14:21:23;99070.00;;;14.50
66372;BMP180;53168;51.146;17.120;2024-02-26T14:23:58;99065.00;;;14.30
66372;BMP180;53168;51.146;17.120;2024-02-26T14:26:34;99065.60;;;14.20
66372;BMP180;53168;51.146;17.120;2024-02-26T14:29:08;99062.80;;;14.10
66372;BMP180;53168;51.146;17.120;2024-02-26T14:31:43;99065.80;;;14.00
66372;BMP180;53168;51.146;17.120;2024-02-26T14:34:19;99065.60;;;14.00
66372;BMP180;53168;51.146;17.120;2024-02-26T14:36:54;99072.60;;;13.90
66372;BMP180;53168;51.146;17.120;2024-02-26T14:39:30;99072.00;;;13.90
66372;BMP180;53168;51.146;17.120;2024-02-26T14:42:06;99071.60;;;13.80
66372;BMP180;53168;51.146;17.120;2024-02-26T14:44:41;99073.40;;;13.70
66372;BMP180;53168;51.146;17.120;2024-02-26T14:47:15;99078.40;;;13.68
66372;BMP180;53168;51.146;17.120;2024-02-26T14:49:50;99075.40;;;13.60
66372;BMP180;53168;51.146;17.120;2024-02-26T14:52:25;99071.80;;;13.54
66372;BMP180;53168;51.146;17.120;2024-02-26T14:54:59;99072.00;;;13.50
66372;BMP180;53168;51.146;17.120;2024-02-26T14:57:35;99078.40;;;13.50
66372;BMP180;53168;51.146;17.120;2024-02-26T15:00:13;99071.60;;;13.46
66372;BMP180;53168;51.146;17.120;2024-02-26T15:02:48;99068.60;;;13.42
66372;BMP180;53168;51.146;17.120;2024-02-26T15:05:25;99066.60;;;13.50
66372;BMP180;53168;51.146;17.120;2024-02-26T15:08:02;99068.20;;;13.50
66372;BMP180;53168;51.146;17.120;2024-02-26T15:10:37;99070.60;;;13.50
66372;BMP180;53168;51.146;17.120;2024-02-26T15:13:12;99073.40;;;13.50
66372;BMP180;53168;51.146;17.120;2024-02-26T15:15:47;99077.40;;;13.50
66372;BMP180;53168;51.146;17.120;2024-02-26T15:19:01;99073.40;;;13.50
66372;BMP180;53168;51.146;17.120;2024-02-26T15:21:46;99072.80;;;13.50
66372;BMP180;53168;51.146;17.120;2024-02-26T15:24:22;99075.80;;;13.50
66372;BMP180;53168;51.146;17.120;2024-02-26T15:26:58;99076.80;;;13.48
66372;BMP180;53168;51.146;17.120;2024-02-26T15:29:33;99082.80;;;13.40
66372;BMP180;53168;51.146;17.120;2024-02-26T15:32:09;99084.40;;;13.38
66372;BMP180;53168;51.146;17.120;2024-02-26T15:34:45;99084.20;;;13.30